createdAt,value
2017-10-09T00:02:25.504Z,0.70
2017-10-09T00:05:24.545Z,1.00
2017-10-09T00:24:34.284Z,0.68
2017-10-09T00:29:56.349Z,0.75
2017-10-09T00:41:24.618Z,1.02
2017-10-09T00:43:54.993Z,0.60
2017-10-09T00:59:21.309Z,0.50
2017-10-09T01:01:55.353Z,0.95
2017-10-09T01:07:25.623Z,0.60
2017-10-09T01:12:41.962Z,0.70
2017-10-09T01:15:13.782Z,0.70
2017-10-09T01:25:46.366Z,1.08
2017-10-09T01:28:17.376Z,0.70
2017-10-09T02:00:36.456Z,1.15
2017-10-09T02:20:06.770Z,0.80
2017-10-09T02:44:10.649Z,1.23
2017-10-09T02:46:54.855Z,1.02
2017-10-09T03:03:35.766Z,0.80
2017-10-09T03:08:55.302Z,1.17
2017-10-09T03:11:24.443Z,1.25
2017-10-09T03:27:32.495Z,1.23
2017-10-09T03:30:03.893Z,1.60
2017-10-09T03:32:34.640Z,1.17
2017-10-09T03:35:07.819Z,1.08
2017-10-09T03:40:14.617Z,1.50
2017-10-09T03:42:44.888Z,1.02
2017-10-09T03:50:41.735Z,1.42
2017-10-09T03:53:10.563Z,1.30
2017-10-09T03:55:39.875Z,1.15
2017-10-09T03:58:11.007Z,0.80
2017-10-09T04:03:22.133Z,1.60
2017-10-09T04:05:51.729Z,1.10
2017-10-09T04:08:22.653Z,0.98
2017-10-09T04:13:27.792Z,1.10
2017-10-09T04:15:56.499Z,1.20
2017-10-09T04:18:25.238Z,1.00
2017-10-09T04:20:57.374Z,1.50
2017-10-09T04:23:27.987Z,1.00
2017-10-09T04:26:18.072Z,1.10
2017-10-09T04:28:49.469Z,0.95
2017-10-09T04:31:18.089Z,1.00
2017-10-09T04:33:48.223Z,1.10
2017-10-09T04:36:17.952Z,1.15
2017-10-09T04:46:32.016Z,1.50
2017-10-09T04:49:01.638Z,1.25
2017-10-09T04:51:31.191Z,1.00
2017-10-09T04:53:59.896Z,1.30
2017-10-09T04:56:36.722Z,1.02
2017-10-09T04:59:05.426Z,1.12
2017-10-09T05:01:34.121Z,0.93
2017-10-09T05:04:02.800Z,1.20
2017-10-09T05:06:33.329Z,2.15
2017-10-09T05:09:02.315Z,1.40
2017-10-09T05:11:31.070Z,1.25
2017-10-09T05:13:59.461Z,1.83
2017-10-09T05:16:28.169Z,1.10
2017-10-09T05:18:57.689Z,1.37
2017-10-09T05:21:26.375Z,1.30
2017-10-09T05:23:55.082Z,1.35
2017-10-09T05:26:24.509Z,1.30
2017-10-09T05:28:53.223Z,1.20
2017-10-09T05:31:22.679Z,1.00
2017-10-09T05:33:51.682Z,1.20
2017-10-09T05:36:20.392Z,2.08
2017-10-09T05:38:49.084Z,2.55
2017-10-09T05:41:17.814Z,2.30
2017-10-09T05:43:46.758Z,2.45
2017-10-09T05:46:15.786Z,2.10
2017-10-09T05:48:44.768Z,1.90
2017-10-09T05:51:14.492Z,1.80
2017-10-09T05:53:43.220Z,2.85
2017-10-09T05:56:12.190Z,1.62
2017-10-09T05:58:41.190Z,1.80
2017-10-09T06:01:10.606Z,1.65
2017-10-09T06:03:39.609Z,1.58
2017-10-09T06:06:08.731Z,2.05
2017-10-09T06:08:37.528Z,1.80
2017-10-09T06:11:06.491Z,2.33
2017-10-09T06:13:36.058Z,1.00
2017-10-09T06:16:04.829Z,1.58
2017-10-09T06:18:33.818Z,1.37
2017-10-09T06:21:02.816Z,2.25
2017-10-09T06:23:32.315Z,1.92
2017-10-09T06:26:01.311Z,1.65
2017-10-09T06:28:30.297Z,1.27
2017-10-09T06:30:59.090Z,1.58
2017-10-09T06:33:27.701Z,2.08
2017-10-09T06:35:56.279Z,1.75
2017-10-09T06:38:26.032Z,2.30
2017-10-09T06:40:54.792Z,2.30
2017-10-09T06:43:23.578Z,1.95
2017-10-09T06:45:52.308Z,1.67
2017-10-09T06:48:21.049Z,1.70
2017-10-09T06:50:50.744Z,1.95
2017-10-09T06:53:19.496Z,1.83
2017-10-09T06:55:48.469Z,2.15
2017-10-09T06:58:17.214Z,1.63
2017-10-09T07:00:45.715Z,1.33
2017-10-09T07:03:15.491Z,1.75
2017-10-09T07:05:44.284Z,1.77
2017-10-09T07:08:12.772Z,1.63
2017-10-09T07:10:41.467Z,1.50
2017-10-09T07:13:10.782Z,1.33
2017-10-09T07:15:39.510Z,1.37
2017-10-09T07:18:08.192Z,1.30
2017-10-09T07:20:36.869Z,1.47
2017-10-09T07:23:05.355Z,2.10
2017-10-09T07:25:34.086Z,1.20
2017-10-09T07:28:02.783Z,1.63
2017-10-09T07:30:31.283Z,2.00
2017-10-09T07:32:59.739Z,1.40
2017-10-09T07:35:28.465Z,1.57
2017-10-09T07:37:56.968Z,1.40
2017-10-09T07:40:25.655Z,1.83
2017-10-09T07:42:54.336Z,1.40
2017-10-09T07:45:22.859Z,1.20
2017-10-09T07:47:52.104Z,1.60
2017-10-09T07:50:20.585Z,2.00
2017-10-09T07:52:49.302Z,1.50
2017-10-09T07:55:17.988Z,1.70
2017-10-09T07:57:46.517Z,1.43
2017-10-09T08:00:15.067Z,1.37
2017-10-09T08:02:43.815Z,1.40
2017-10-09T08:05:12.364Z,1.30
2017-10-09T08:07:40.893Z,0.93
2017-10-09T08:10:09.592Z,1.20
2017-10-09T08:12:38.055Z,1.10
2017-10-09T08:15:06.576Z,2.20
2017-10-09T08:17:35.550Z,1.00
2017-10-09T08:20:04.032Z,1.67
2017-10-09T08:22:33.195Z,1.43
2017-10-09T08:25:01.720Z,1.47
2017-10-09T08:27:29.890Z,1.10
2017-10-09T08:29:58.370Z,1.43
2017-10-09T08:32:26.890Z,1.17
2017-10-09T08:34:55.383Z,1.37
2017-10-09T08:37:23.893Z,1.40
2017-10-09T08:39:52.401Z,1.40
2017-10-09T08:42:20.713Z,1.27
2017-10-09T08:44:49.238Z,1.37
2017-10-09T08:47:17.730Z,1.23
2017-10-09T08:49:46.236Z,1.50
2017-10-09T08:52:14.279Z,1.30
2017-10-09T08:54:42.806Z,1.10
2017-10-09T08:57:11.873Z,1.07
2017-10-09T08:59:40.430Z,1.27
2017-10-09T09:02:08.923Z,1.27
2017-10-09T09:04:37.419Z,1.20
2017-10-09T09:07:07.440Z,1.03
2017-10-09T09:09:35.937Z,1.40
2017-10-09T09:12:04.411Z,1.17
2017-10-09T09:14:32.899Z,1.50
2017-10-09T09:17:01.376Z,0.70
2017-10-09T09:19:29.705Z,1.50
2017-10-09T09:21:58.206Z,2.03
2017-10-09T09:24:26.695Z,1.53
2017-10-09T09:26:55.175Z,1.23
2017-10-09T09:29:23.634Z,1.07
2017-10-09T09:31:52.121Z,1.60
2017-10-09T09:34:20.676Z,1.50
2017-10-09T09:36:50.161Z,1.50
2017-10-09T09:39:19.430Z,2.50
2017-10-09T09:41:48.154Z,1.83
2017-10-09T09:44:16.666Z,1.60
2017-10-09T09:46:45.182Z,1.30
2017-10-09T09:49:13.908Z,2.57
2017-10-09T09:51:42.964Z,1.53
2017-10-09T09:54:11.443Z,1.83
2017-10-09T09:56:39.800Z,1.83
2017-10-09T09:59:08.493Z,1.57
2017-10-09T10:01:36.792Z,2.37
2017-10-09T10:04:05.289Z,1.50
2017-10-09T10:06:33.778Z,2.03
2017-10-09T10:09:02.253Z,2.47
2017-10-09T10:11:31.508Z,2.20
2017-10-09T10:14:00.000Z,2.30
2017-10-09T10:16:28.480Z,1.90
2017-10-09T10:18:56.705Z,2.23
2017-10-09T10:21:25.193Z,1.90
2017-10-09T10:23:53.664Z,2.67
2017-10-09T10:26:22.227Z,1.80
2017-10-09T10:28:50.717Z,2.17
2017-10-09T10:31:19.196Z,2.43
2017-10-09T10:33:47.694Z,2.30
2017-10-09T10:36:16.381Z,2.83
2017-10-09T10:38:44.964Z,2.67
2017-10-09T10:41:13.454Z,2.60
2017-10-09T10:43:41.913Z,2.80
2017-10-09T10:46:10.404Z,3.43
2017-10-09T10:48:38.877Z,3.63
2017-10-09T10:51:07.369Z,2.60
2017-10-09T10:53:36.088Z,4.30
2017-10-09T10:56:05.319Z,2.90
2017-10-09T10:58:33.828Z,3.47
2017-10-09T11:01:02.773Z,3.47
2017-10-09T11:03:31.482Z,3.80
2017-10-09T11:06:00.264Z,3.43
2017-10-09T11:08:28.737Z,3.20
2017-10-09T11:10:58.005Z,3.50
2017-10-09T11:13:26.497Z,3.23
2017-10-09T11:15:55.187Z,3.53
2017-10-09T11:18:23.484Z,2.97
2017-10-09T11:20:52.729Z,2.43
2017-10-09T11:23:22.288Z,3.10
2017-10-09T11:25:51.602Z,3.07
2017-10-09T11:28:20.056Z,3.40
2017-10-09T11:30:48.515Z,3.03
2017-10-09T11:33:16.997Z,2.70
2017-10-09T11:35:45.447Z,2.67
2017-10-09T11:38:13.744Z,3.30
2017-10-09T11:40:42.218Z,2.50
2017-10-09T11:43:10.697Z,2.40
2017-10-09T11:45:39.186Z,3.00
2017-10-09T11:48:07.904Z,2.90
2017-10-09T11:50:36.371Z,3.70
2017-10-09T11:53:04.857Z,2.70
2017-10-09T11:55:33.365Z,3.00
2017-10-09T11:58:02.616Z,2.00
2017-10-09T12:00:31.099Z,2.80
2017-10-09T12:02:59.824Z,2.80
2017-10-09T12:05:28.746Z,3.50
2017-10-09T12:07:57.477Z,3.23
2017-10-09T12:10:25.954Z,2.80
2017-10-09T12:12:54.420Z,2.83
2017-10-09T12:15:22.904Z,2.93
2017-10-09T12:17:51.427Z,3.03
2017-10-09T12:20:19.901Z,3.30
2017-10-09T12:22:48.356Z,3.20
2017-10-09T12:25:16.850Z,2.30
2017-10-09T12:27:45.345Z,3.43
2017-10-09T12:30:14.091Z,3.60
2017-10-09T12:32:42.585Z,2.83
2017-10-09T12:35:11.053Z,2.87
2017-10-09T12:37:39.525Z,2.53
2017-10-09T12:40:08.050Z,2.43
2017-10-09T12:42:36.500Z,2.83
2017-10-09T12:45:04.957Z,3.33
2017-10-09T12:47:33.465Z,3.00
2017-10-09T12:50:02.180Z,3.17
2017-10-09T12:52:30.632Z,3.30
2017-10-09T12:54:59.112Z,2.80
2017-10-09T12:57:28.315Z,2.80
2017-10-09T12:59:56.735Z,2.80
2017-10-09T13:02:25.191Z,2.10
2017-10-09T13:04:53.646Z,3.10
2017-10-09T13:07:22.858Z,2.87
2017-10-09T13:09:51.315Z,3.03
2017-10-09T13:12:19.768Z,2.97
2017-10-09T13:14:48.191Z,2.50
2017-10-09T13:17:17.479Z,3.37
2017-10-09T13:19:45.890Z,3.17
2017-10-09T13:22:14.307Z,2.80
2017-10-09T13:24:42.770Z,2.67
2017-10-09T13:27:11.173Z,3.07
2017-10-09T13:29:39.612Z,3.30
2017-10-09T13:32:08.071Z,2.20
2017-10-09T13:34:37.257Z,2.50
2017-10-09T13:37:05.665Z,2.93
2017-10-09T13:39:34.094Z,2.60
2017-10-09T13:42:02.549Z,2.93
2017-10-09T13:44:30.978Z,2.87
2017-10-09T13:46:59.490Z,2.87
2017-10-09T13:49:27.903Z,2.93
2017-10-09T13:51:56.351Z,2.90
2017-10-09T13:54:24.835Z,2.73
2017-10-09T13:56:53.278Z,2.80
2017-10-09T13:59:21.694Z,2.63
2017-10-09T14:01:49.991Z,2.37
2017-10-09T14:04:18.664Z,2.67
2017-10-09T14:06:47.089Z,4.17
2017-10-09T14:09:15.541Z,2.70
2017-10-09T14:11:43.975Z,3.00
2017-10-09T14:14:12.389Z,2.70
2017-10-09T14:16:41.600Z,3.03
2017-10-09T14:19:10.017Z,3.00
2017-10-09T14:21:38.424Z,2.37
2017-10-09T14:24:06.875Z,2.83
2017-10-09T14:26:35.298Z,2.57
2017-10-09T14:29:04.494Z,2.53
2017-10-09T14:41:27.239Z,2.60
2017-10-09T14:43:55.669Z,2.30
2017-10-09T14:46:24.147Z,2.17
2017-10-09T14:48:52.567Z,2.47
2017-10-09T14:51:21.083Z,2.40
2017-10-09T14:53:49.699Z,2.50
2017-10-09T14:56:17.922Z,2.53
2017-10-09T14:58:46.340Z,3.07
2017-10-09T15:01:14.785Z,2.70
2017-10-09T15:03:43.203Z,3.03
2017-10-09T15:06:11.653Z,3.47
2017-10-09T15:08:40.143Z,2.77
2017-10-09T15:11:08.382Z,2.67
2017-10-09T15:13:36.798Z,3.07
2017-10-09T15:16:05.256Z,2.97
2017-10-09T15:18:33.679Z,2.97
2017-10-09T15:21:02.098Z,2.67
2017-10-09T15:23:31.328Z,2.63
2017-10-09T15:25:59.773Z,2.40
2017-10-09T15:28:28.197Z,2.70
2017-10-09T15:30:56.639Z,3.00
2017-10-09T15:33:24.863Z,2.50
2017-10-09T15:35:53.104Z,2.80
2017-10-09T15:38:22.318Z,2.90
2017-10-09T15:40:50.753Z,2.00
2017-10-09T15:43:19.168Z,2.40
2017-10-09T15:45:48.389Z,2.63
2017-10-09T15:48:16.835Z,3.13
2017-10-09T15:50:45.246Z,2.40
2017-10-09T15:53:13.664Z,2.83
2017-10-09T15:55:42.132Z,2.20
2017-10-09T15:58:10.757Z,2.90
2017-10-09T16:00:39.177Z,2.53
2017-10-09T16:03:07.596Z,2.43
2017-10-09T16:05:36.018Z,2.20
2017-10-09T16:08:05.230Z,2.73
2017-10-09T16:10:33.664Z,2.27
2017-10-09T16:13:02.091Z,3.00
2017-10-09T16:15:30.540Z,2.80
2017-10-09T16:17:58.962Z,2.77
2017-10-09T16:20:27.372Z,2.50
2017-10-09T16:22:55.837Z,2.57
2017-10-09T16:25:24.299Z,3.20
2017-10-09T16:27:52.711Z,2.80
2017-10-09T16:30:21.158Z,2.57
2017-10-09T16:32:49.576Z,2.43
2017-10-09T16:35:17.984Z,2.53
2017-10-09T16:37:47.961Z,2.97
2017-10-09T16:40:17.005Z,2.95
2017-10-09T16:42:45.713Z,4.28
2017-10-09T16:45:14.429Z,3.25
2017-10-09T16:47:42.855Z,3.30
2017-10-09T16:50:11.343Z,2.80
2017-10-09T16:52:40.047Z,3.53
2017-10-09T16:55:08.734Z,4.40
2017-10-09T16:57:37.453Z,4.82
2017-10-09T17:00:06.947Z,6.35
2017-10-09T17:02:36.613Z,7.72
2017-10-09T17:05:05.364Z,3.58
2017-10-09T17:07:35.016Z,5.35
2017-10-09T17:10:03.690Z,5.18
2017-10-09T17:12:32.353Z,4.65
2017-10-09T17:15:01.032Z,4.90
2017-10-09T17:17:32.351Z,5.28
2017-10-09T17:20:01.042Z,8.50
2017-10-09T17:22:29.310Z,6.97
2017-10-09T17:24:58.002Z,7.72
2017-10-09T17:27:26.493Z,6.75
2017-10-09T17:29:55.183Z,7.53
2017-10-09T17:32:23.862Z,6.90
2017-10-09T17:34:52.542Z,7.03
2017-10-09T17:37:21.553Z,6.93
2017-10-09T17:39:51.436Z,7.10
2017-10-09T17:42:20.179Z,5.78
2017-10-09T17:44:48.937Z,5.37
2017-10-09T17:47:17.658Z,6.32
2017-10-09T17:49:46.375Z,6.35
2017-10-09T17:52:15.125Z,4.72
2017-10-09T17:54:44.714Z,5.03
2017-10-09T17:57:13.277Z,5.05
2017-10-09T17:59:42.760Z,4.50
2017-10-09T18:02:11.634Z,5.55
2017-10-09T18:04:40.676Z,4.70
2017-10-09T18:07:10.593Z,5.82
2017-10-09T18:09:39.560Z,5.20
2017-10-09T18:12:08.561Z,6.93
2017-10-09T18:14:37.553Z,10.43
2017-10-09T18:17:06.531Z,12.80
2017-10-09T18:19:38.306Z,14.60
2017-10-09T18:22:10.605Z,11.20
2017-10-09T18:24:40.220Z,13.45
2017-10-09T18:27:09.500Z,13.43
2017-10-09T18:29:38.236Z,12.82
2017-10-09T18:32:09.294Z,11.65
2017-10-09T18:34:38.356Z,10.35
2017-10-09T18:37:07.345Z,10.02
2017-10-09T18:39:36.442Z,9.30
2017-10-09T18:42:05.793Z,10.30
2017-10-09T18:44:34.620Z,10.45
2017-10-09T18:47:03.363Z,8.02
2017-10-09T18:49:32.106Z,6.75
2017-10-09T18:52:00.589Z,4.80
2017-10-09T18:54:30.430Z,6.57
2017-10-09T18:56:59.411Z,5.87
2017-10-09T18:59:28.473Z,6.22
2017-10-09T19:04:38.789Z,5.37
2017-10-09T19:07:07.805Z,5.75
2017-10-09T19:09:36.854Z,6.25
2017-10-09T19:12:05.670Z,5.07
2017-10-09T19:14:35.419Z,5.28
2017-10-09T19:17:04.658Z,5.78
2017-10-09T19:19:33.458Z,6.72
2017-10-09T19:22:03.260Z,5.97
2017-10-09T19:24:32.205Z,6.18
2017-10-09T19:27:03.232Z,5.65
2017-10-09T19:29:33.341Z,5.90
2017-10-09T19:32:04.131Z,5.40
2017-10-09T19:34:33.352Z,5.30
2017-10-09T19:37:02.079Z,4.40
2017-10-09T19:42:11.252Z,4.68
2017-10-09T19:44:42.243Z,3.78
2017-10-09T19:47:11.445Z,3.78
2017-10-09T19:49:40.797Z,5.28
2017-10-09T19:52:09.758Z,4.05
2017-10-09T19:54:38.753Z,4.47
2017-10-09T19:57:08.165Z,3.95
2017-10-09T19:59:36.740Z,4.03
2017-10-09T20:02:06.186Z,4.97
2017-10-09T20:04:34.872Z,4.28
2017-10-09T20:07:03.869Z,3.65
2017-10-09T20:09:32.888Z,4.15
2017-10-09T20:12:01.674Z,3.17
2017-10-09T20:14:30.596Z,4.20
2017-10-09T20:17:00.351Z,3.90
2017-10-09T20:19:28.954Z,4.18
2017-10-09T20:24:50.605Z,4.25
2017-10-09T20:27:19.984Z,3.60
2017-10-09T20:29:48.996Z,3.33
2017-10-09T20:32:18.425Z,3.65
2017-10-09T20:34:48.767Z,4.10
2017-10-09T20:37:18.205Z,4.10
2017-10-09T20:39:47.124Z,3.75
2017-10-09T20:42:16.178Z,3.85
2017-10-09T20:44:45.309Z,4.28
2017-10-09T20:47:14.074Z,4.30
2017-10-09T20:49:43.276Z,3.37
2017-10-09T20:52:12.042Z,4.43
2017-10-09T20:54:40.994Z,3.97
2017-10-09T20:57:09.929Z,3.75
2017-10-09T20:59:38.687Z,4.35
2017-10-09T21:02:07.764Z,4.15
2017-10-09T21:04:36.543Z,3.50
2017-10-09T21:07:05.564Z,4.40
2017-10-09T21:09:34.318Z,3.33
2017-10-09T21:12:03.313Z,3.35
2017-10-09T21:14:32.093Z,3.12
2017-10-09T21:17:00.847Z,3.50
2017-10-09T21:19:30.361Z,3.75
2017-10-09T21:21:59.185Z,4.15
2017-10-09T21:24:27.933Z,3.87
2017-10-09T21:26:57.454Z,3.55
2017-10-09T21:29:26.256Z,3.42
2017-10-09T21:31:55.037Z,3.97
2017-10-09T21:34:23.987Z,3.25
2017-10-09T21:36:52.739Z,4.05
2017-10-09T21:39:21.532Z,3.33
2017-10-09T21:41:50.470Z,3.22
2017-10-09T21:44:19.297Z,4.43
2017-10-09T21:46:47.981Z,3.47
2017-10-09T21:49:16.945Z,3.45
2017-10-09T21:51:46.378Z,3.65
2017-10-09T21:54:15.136Z,3.25
2017-10-09T21:56:44.093Z,3.60
2017-10-09T21:59:12.827Z,4.25
2017-10-09T22:01:41.811Z,3.97
2017-10-09T22:04:11.376Z,4.57
2017-10-09T22:06:40.124Z,4.55
2017-10-09T22:09:09.093Z,4.25
2017-10-09T22:11:37.843Z,3.15
2017-10-09T22:14:06.799Z,3.60
2017-10-09T22:16:35.613Z,4.53
2017-10-09T22:19:04.349Z,4.28
2017-10-09T22:21:33.092Z,3.80
2017-10-09T22:24:01.891Z,4.30
2017-10-09T22:26:30.900Z,4.10
2017-10-09T22:28:59.653Z,3.62
2017-10-09T22:31:28.638Z,3.70
2017-10-09T22:33:57.605Z,4.30
2017-10-09T22:36:27.152Z,4.30
2017-10-09T22:38:55.958Z,3.40
2017-10-09T22:41:24.913Z,3.20
2017-10-09T22:43:54.188Z,4.30
2017-10-09T22:46:23.072Z,3.80
2017-10-09T22:48:52.025Z,4.22
2017-10-09T22:51:20.904Z,4.60
2017-10-09T22:53:49.705Z,3.75
2017-10-09T22:56:18.729Z,3.70
2017-10-09T22:58:47.530Z,3.62
2017-10-09T23:01:16.350Z,4.05
2017-10-09T23:03:46.073Z,3.58
2017-10-09T23:06:14.683Z,3.58
2017-10-09T23:08:43.562Z,3.58
2017-10-09T23:11:12.314Z,3.90
2017-10-09T23:13:41.061Z,3.53
2017-10-09T23:16:10.093Z,3.60
2017-10-09T23:18:38.842Z,3.87
2017-10-09T23:21:07.801Z,4.25
2017-10-09T23:23:36.586Z,5.25
2017-10-09T23:26:06.133Z,5.28
2017-10-09T23:28:34.716Z,4.57
2017-10-09T23:31:03.711Z,5.75
2017-10-09T23:33:32.636Z,5.07
2017-10-09T23:36:01.373Z,5.97
2017-10-09T23:38:30.332Z,6.55
2017-10-09T23:41:00.104Z,6.65
2017-10-09T23:43:29.048Z,5.40
2017-10-09T23:45:57.834Z,5.50
2017-10-09T23:48:26.854Z,6.22
2017-10-09T23:50:55.833Z,6.85
2017-10-09T23:53:24.644Z,5.85
2017-10-09T23:55:53.404Z,6.15
2017-10-09T23:58:22.358Z,6.45
